createdAt,value
2022-09-07T00:01:07.372Z,85.28
2022-09-07T00:03:34.383Z,85.59
2022-09-07T00:06:06.259Z,86.28
2022-09-07T00:08:33.299Z,85.27
2022-09-07T00:11:02.810Z,85.60
2022-09-07T00:13:32.540Z,86.33
2022-09-07T00:15:59.344Z,85.74
2022-09-07T00:18:26.132Z,86.00
2022-09-07T00:21:05.841Z,86.38
2022-09-07T00:23:34.318Z,87.06
2022-09-07T00:26:06.929Z,87.02
2022-09-07T00:28:34.502Z,87.23
2022-09-07T00:31:01.247Z,87.03
2022-09-07T00:33:28.896Z,87.07
2022-09-07T00:35:55.730Z,89.44
2022-09-07T00:38:22.437Z,88.86
2022-09-07T00:40:49.458Z,88.49
2022-09-07T00:43:30.540Z,87.69
2022-09-07T00:45:57.197Z,87.77
2022-09-07T00:48:31.398Z,87.19
2022-09-07T00:51:05.359Z,87.45
2022-09-07T00:53:39.024Z,88.57
2022-09-07T00:56:06.764Z,89.10
2022-09-07T00:58:36.194Z,89.55
2022-09-07T01:01:03.874Z,88.09
2022-09-07T01:03:36.124Z,88.03
2022-09-07T01:06:11.943Z,88.53
2022-09-07T01:08:38.992Z,88.33
2022-09-07T01:11:06.332Z,88.08
2022-09-07T01:13:33.129Z,88.12
2022-09-07T01:16:06.666Z,87.80
2022-09-07T01:18:39.044Z,87.75
2022-09-07T01:21:25.864Z,87.38
2022-09-07T01:24:07.072Z,88.14
2022-09-07T01:26:43.846Z,88.12
2022-09-07T01:29:38.490Z,88.67
2022-09-07T01:32:25.391Z,89.29
2022-09-07T01:34:55.020Z,90.21
2022-09-07T01:37:30.779Z,89.67
2022-09-07T01:40:26.830Z,89.11
2022-09-07T01:43:02.443Z,90.46
2022-09-07T01:45:33.651Z,91.30
2022-09-07T01:48:06.220Z,91.49
2022-09-07T01:50:40.921Z,91.11
2022-09-07T01:53:27.242Z,89.91
2022-09-07T01:56:01.836Z,90.26
2022-09-07T01:58:35.220Z,90.08
2022-09-07T02:01:08.176Z,89.54
2022-09-07T02:03:51.573Z,90.10
2022-09-07T02:06:29.474Z,90.94
2022-09-07T02:09:01.089Z,90.15
2022-09-07T02:11:37.682Z,91.46
2022-09-07T02:14:23.668Z,91.59
2022-09-07T02:17:00.372Z,90.92
2022-09-07T02:19:30.343Z,90.38
2022-09-07T02:22:01.020Z,91.78
2022-09-07T02:24:35.380Z,91.50
2022-09-07T02:27:12.414Z,93.18
2022-09-07T02:29:39.400Z,93.17
2022-09-07T02:32:06.720Z,92.55
2022-09-07T02:34:33.856Z,93.26
2022-09-07T02:37:02.811Z,93.04
2022-09-07T02:39:29.604Z,92.63
2022-09-07T02:41:56.300Z,91.65
2022-09-07T02:44:27.641Z,91.17
2022-09-07T02:47:13.306Z,90.61
2022-09-07T02:49:51.959Z,91.13
2022-09-07T02:52:18.639Z,91.45
2022-09-07T02:54:45.230Z,92.91
2022-09-07T02:57:17.866Z,94.20
2022-09-07T03:00:05.876Z,95.36
2022-09-07T03:02:50.662Z,95.27
2022-09-07T03:05:36.904Z,95.17
2022-09-07T03:08:16.136Z,96.15
2022-09-07T03:10:43.802Z,95.62
2022-09-07T03:13:23.825Z,96.45
2022-09-07T03:15:55.565Z,95.70
2022-09-07T03:18:23.545Z,95.32
2022-09-07T03:20:50.227Z,95.39
2022-09-07T03:23:16.927Z,94.40
2022-09-07T03:25:44.210Z,94.88
2022-09-07T03:28:11.121Z,94.11
2022-09-07T03:30:43.041Z,94.39
2022-09-07T03:33:11.030Z,94.77
2022-09-07T03:35:37.762Z,95.61
2022-09-07T03:38:04.451Z,96.45
2022-09-07T03:40:31.106Z,95.75
2022-09-07T03:42:57.765Z,97.33
2022-09-07T03:45:24.442Z,97.80
2022-09-07T03:47:51.252Z,96.82
2022-09-07T03:50:18.356Z,97.44
2022-09-07T03:52:44.987Z,96.41
2022-09-07T03:55:11.688Z,95.23
2022-09-07T03:57:39.187Z,94.84
2022-09-07T04:00:06.923Z,95.08
2022-09-07T04:02:33.684Z,94.20
2022-09-07T04:05:00.364Z,92.39
2022-09-07T04:07:27.075Z,92.02
2022-09-07T04:09:53.775Z,92.16
2022-09-07T04:12:20.432Z,92.26
2022-09-07T04:14:47.187Z,92.04
2022-09-07T04:17:14.167Z,92.29
2022-09-07T04:19:40.859Z,92.11
2022-09-07T04:22:07.486Z,92.50
2022-09-07T04:24:34.183Z,92.69
2022-09-07T04:27:02.148Z,92.47
2022-09-07T04:29:28.813Z,92.34
2022-09-07T04:31:55.495Z,91.74
2022-09-07T04:34:22.178Z,92.32
2022-09-07T04:36:48.877Z,91.65
2022-09-07T04:39:15.600Z,91.62
2022-09-07T04:41:42.263Z,91.64
2022-09-07T04:44:14.796Z,91.25
2022-09-07T04:46:43.407Z,89.82
2022-09-07T04:49:11.884Z,89.17
2022-09-07T04:51:40.043Z,88.24
2022-09-07T04:54:07.091Z,87.31
2022-09-07T04:56:34.197Z,86.86
2022-09-07T04:59:02.165Z,86.19
2022-09-07T05:01:29.605Z,86.55
2022-09-07T05:03:56.992Z,86.17
2022-09-07T05:06:24.221Z,86.20
2022-09-07T05:08:53.268Z,85.61
2022-09-07T05:11:27.721Z,84.67
2022-09-07T05:14:01.242Z,82.43
2022-09-07T05:16:29.020Z,81.79
2022-09-07T05:19:01.652Z,81.85
2022-09-07T05:21:31.303Z,80.96
2022-09-07T05:23:59.490Z,81.20
2022-09-07T05:26:29.175Z,80.26
2022-09-07T05:31:42.566Z,78.26
2022-09-07T05:36:56.785Z,77.27
2022-09-07T05:39:23.823Z,77.35
2022-09-07T05:41:50.540Z,76.40
2022-09-07T05:47:04.103Z,75.44
2022-09-07T05:49:30.973Z,73.61
2022-09-07T05:51:57.690Z,73.66
2022-09-07T05:54:24.396Z,74.02
2022-09-07T05:56:51.075Z,73.50
2022-09-07T05:59:17.927Z,71.79
2022-09-07T06:01:44.753Z,71.77
2022-09-07T06:04:11.456Z,71.63
2022-09-07T06:06:40.884Z,71.09
2022-09-07T06:09:07.972Z,70.81
2022-09-07T06:11:34.675Z,70.11
2022-09-07T06:14:01.340Z,69.21
2022-09-07T06:16:28.135Z,68.72
2022-09-07T06:18:55.005Z,68.34
2022-09-07T06:21:23.957Z,67.27
2022-09-07T06:23:51.531Z,66.96
2022-09-07T06:26:19.620Z,66.52
2022-09-07T06:28:50.208Z,66.09
2022-09-07T06:31:23.400Z,65.81
2022-09-07T06:33:51.628Z,64.23
2022-09-07T06:36:20.991Z,64.46
2022-09-07T06:38:49.333Z,63.99
2022-09-07T06:44:12.490Z,63.16
2022-09-07T06:49:26.607Z,63.14
2022-09-07T06:51:53.312Z,62.77
2022-09-07T06:57:09.312Z,61.85
2022-09-07T06:59:37.280Z,61.61
2022-09-07T07:02:05.510Z,61.21
2022-09-07T07:04:37.750Z,60.26
2022-09-07T07:07:10.043Z,60.34
2022-09-07T07:09:36.722Z,56.67
2022-09-07T07:12:03.542Z,55.51
2022-09-07T07:14:33.803Z,54.59
2022-09-07T07:17:02.104Z,54.20
2022-09-07T07:19:28.859Z,53.47
2022-09-07T07:24:42.262Z,52.45
2022-09-07T07:27:08.935Z,52.51
2022-09-07T07:29:35.606Z,54.37
2022-09-07T07:32:02.574Z,53.21
2022-09-07T07:34:29.441Z,52.71
2022-09-07T07:36:56.189Z,52.47
2022-09-07T07:42:09.505Z,51.33
2022-09-07T07:44:36.110Z,51.04
2022-09-07T07:47:02.886Z,50.58
2022-09-07T07:49:29.555Z,48.81
2022-09-07T07:54:43.495Z,48.75
2022-09-07T07:57:10.527Z,47.81
2022-09-07T07:59:37.420Z,48.26
2022-09-07T08:02:06.084Z,46.77
2022-09-07T08:04:35.929Z,46.61
2022-09-07T08:07:09.528Z,46.52
2022-09-07T08:09:41.138Z,46.32
2022-09-07T08:12:09.931Z,46.00
2022-09-07T08:14:41.202Z,45.83
2022-09-07T08:17:10.171Z,44.64
2022-09-07T08:19:37.060Z,45.24
2022-09-07T08:24:31.855Z,45.87
2022-09-07T08:26:58.589Z,45.26
2022-09-07T08:29:25.411Z,45.13
2022-09-07T08:31:52.192Z,44.91
2022-09-07T08:34:18.798Z,45.03
2022-09-07T08:36:45.380Z,44.49
2022-09-07T08:39:12.037Z,44.32
2022-09-07T08:41:41.402Z,44.68
2022-09-07T08:44:19.968Z,44.51
2022-09-07T08:47:14.223Z,44.83
2022-09-07T08:50:01.325Z,45.43
2022-09-07T08:52:38.477Z,45.24
2022-09-07T08:55:14.851Z,44.78
2022-09-07T08:57:47.720Z,44.33
2022-09-07T09:00:17.376Z,44.79
2022-09-07T09:02:45.648Z,44.62
2022-09-07T09:05:51.227Z,44.08
2022-09-07T09:08:54.966Z,44.87
2022-09-07T09:11:29.263Z,44.22
2022-09-07T09:14:10.679Z,44.45
2022-09-07T09:16:55.249Z,43.64
2022-09-07T09:19:44.867Z,43.34
2022-09-07T09:22:17.516Z,43.14
2022-09-07T09:24:57.500Z,43.64
2022-09-07T09:27:24.139Z,42.95
2022-09-07T09:29:50.684Z,42.18
2022-09-07T09:32:39.043Z,42.01
2022-09-07T09:35:33.020Z,41.86
2022-09-07T09:37:59.485Z,41.08
2022-09-07T09:40:34.550Z,41.20
2022-09-07T09:43:18.615Z,41.32
2022-09-07T09:48:40.071Z,41.08
2022-09-07T09:54:06.320Z,40.25
2022-09-07T09:56:44.328Z,39.97
2022-09-07T10:05:28.138Z,39.92
2022-09-07T10:07:54.974Z,39.71
2022-09-07T10:10:21.689Z,40.23
2022-09-07T10:12:53.069Z,40.50
2022-09-07T10:15:41.327Z,39.58
2022-09-07T10:18:18.776Z,39.34
2022-09-07T10:20:45.591Z,38.90
2022-09-07T10:23:23.924Z,38.42
2022-09-07T10:25:51.239Z,38.30
2022-09-07T10:28:23.890Z,38.16
2022-09-07T10:31:15.405Z,38.60
2022-09-07T10:34:26.823Z,38.70
2022-09-07T10:37:04.509Z,37.98
2022-09-07T10:39:43.966Z,37.97
2022-09-07T10:42:22.331Z,37.86
2022-09-07T10:44:51.927Z,38.05
2022-09-07T10:47:32.856Z,37.77
2022-09-07T10:50:23.671Z,37.48
2022-09-07T10:52:50.307Z,36.96
2022-09-07T10:55:26.322Z,36.77
2022-09-07T10:58:14.428Z,36.93
2022-09-07T11:00:53.978Z,36.65
2022-09-07T11:03:39.868Z,37.06
2022-09-07T11:06:25.799Z,37.29
2022-09-07T11:09:19.419Z,36.95
2022-09-07T11:12:03.673Z,37.14
2022-09-07T11:14:33.194Z,37.48
2022-09-07T11:17:08.900Z,35.90
2022-09-07T11:20:16.774Z,36.53
2022-09-07T11:22:47.788Z,35.72
2022-09-07T11:25:30.017Z,35.80
2022-09-07T11:28:02.687Z,36.38
2022-09-07T11:30:46.372Z,35.78
2022-09-07T11:33:31.949Z,36.02
2022-09-07T11:36:09.873Z,37.37
2022-09-07T11:38:52.898Z,37.52
2022-09-07T11:41:49.210Z,38.22
2022-09-07T11:44:24.745Z,37.27
2022-09-07T11:46:56.408Z,37.30
2022-09-07T11:49:27.936Z,37.24
2022-09-07T11:52:34.513Z,36.87
2022-09-07T11:55:08.040Z,36.83
2022-09-07T11:58:03.377Z,36.95
2022-09-07T12:00:52.826Z,36.77
2022-09-07T12:03:38.134Z,36.64
2022-09-07T12:06:29.487Z,36.48
2022-09-07T12:09:20.990Z,36.44
2022-09-07T12:12:17.793Z,37.15
2022-09-07T12:15:02.403Z,37.07
2022-09-07T12:18:08.089Z,37.33
2022-09-07T12:20:43.841Z,37.44
2022-09-07T12:23:16.403Z,37.50
2022-09-07T12:25:48.000Z,37.95
2022-09-07T12:28:37.584Z,37.58
2022-09-07T12:31:06.836Z,37.54
2022-09-07T12:33:36.741Z,37.08
2022-09-07T12:36:25.836Z,37.11
2022-09-07T12:39:20.835Z,37.89
2022-09-07T12:42:31.448Z,37.30
2022-09-07T12:44:38.196Z,37.89
2022-09-07T12:47:10.755Z,37.96
2022-09-07T12:49:43.228Z,38.05
2022-09-07T12:52:15.642Z,37.57
2022-09-07T12:55:09.933Z,36.13
2022-09-07T12:58:17.560Z,37.50
2022-09-07T13:01:12.293Z,38.13
2022-09-07T13:03:53.499Z,38.22
2022-09-07T13:09:24.769Z,38.09
2022-09-07T13:11:51.552Z,38.01
2022-09-07T13:14:26.363Z,37.55
2022-09-07T13:17:39.940Z,38.15
2022-09-07T13:20:19.044Z,37.63
2022-09-07T13:22:54.053Z,38.11
2022-09-07T13:25:21.933Z,37.82
2022-09-07T13:28:00.640Z,37.42
2022-09-07T13:30:33.532Z,36.94
2022-09-07T13:33:25.525Z,36.16
2022-09-07T13:35:56.808Z,34.99
2022-09-07T13:38:23.568Z,34.71
2022-09-07T13:40:53.013Z,34.63
2022-09-07T13:43:23.088Z,32.82
2022-09-07T13:45:56.037Z,31.85
2022-09-07T13:48:25.642Z,30.41
2022-09-07T13:51:03.999Z,29.44
2022-09-07T13:53:42.768Z,29.60
2022-09-07T13:56:15.663Z,29.27
2022-09-07T13:58:46.378Z,28.98
2022-09-07T14:01:13.016Z,28.43
2022-09-07T14:03:49.106Z,28.48
2022-09-07T14:06:21.253Z,29.78
2022-09-07T14:08:50.587Z,29.81
2022-09-07T14:11:25.840Z,29.59
2022-09-07T14:14:25.207Z,30.62
2022-09-07T14:17:00.872Z,30.61
2022-09-07T14:19:39.734Z,30.67
2022-09-07T14:22:12.058Z,30.67
2022-09-07T14:24:43.175Z,30.75
2022-09-07T14:27:39.041Z,31.57
2022-09-07T14:30:19.152Z,32.75
2022-09-07T14:33:02.233Z,34.55
2022-09-07T14:35:33.709Z,35.82
2022-09-07T14:38:15.833Z,36.47
2022-09-07T14:40:42.619Z,36.81
2022-09-07T14:43:35.964Z,37.34
2022-09-07T14:46:21.092Z,37.93
2022-09-07T14:48:51.834Z,38.21
2022-09-07T14:51:34.991Z,38.25
2022-09-07T14:54:05.713Z,38.88
2022-09-07T14:56:40.910Z,38.61
2022-09-07T14:59:47.211Z,38.30
2022-09-07T15:02:19.659Z,38.51
2022-09-07T15:04:47.546Z,38.37
2022-09-07T15:07:30.114Z,39.27
2022-09-07T15:10:13.174Z,38.93
2022-09-07T15:12:43.997Z,38.78
2022-09-07T15:15:31.860Z,38.66
2022-09-07T15:18:07.554Z,38.69
2022-09-07T15:20:40.034Z,38.93
2022-09-07T15:23:12.288Z,39.01
2022-09-07T15:25:40.703Z,39.20
2022-09-07T15:28:07.960Z,39.28
2022-09-07T15:30:34.765Z,39.33
2022-09-07T15:33:01.475Z,39.65
2022-09-07T15:35:28.208Z,39.54
2022-09-07T15:38:04.641Z,39.89
2022-09-07T15:40:56.411Z,39.99
2022-09-07T15:43:28.560Z,40.20
2022-09-07T15:45:55.624Z,40.24
2022-09-07T15:48:25.325Z,40.09
2022-09-07T15:51:01.466Z,40.08
2022-09-07T15:56:16.119Z,40.21
2022-09-07T15:58:43.756Z,39.73
2022-09-07T16:03:59.158Z,39.92
2022-09-07T16:06:26.407Z,40.29
2022-09-07T16:08:53.686Z,40.61
2022-09-07T16:11:26.025Z,40.87
2022-09-07T16:14:01.373Z,41.43
2022-09-07T16:19:20.576Z,41.23
2022-09-07T16:21:47.547Z,41.56
2022-09-07T16:24:14.182Z,41.70
2022-09-07T16:26:40.758Z,41.71
2022-09-07T16:29:07.882Z,42.21
2022-09-07T16:31:35.073Z,42.59
2022-09-07T16:34:03.265Z,42.97
2022-09-07T16:36:30.664Z,43.20
2022-09-07T16:39:00.316Z,43.59
2022-09-07T16:41:31.937Z,43.65
2022-09-07T16:43:59.033Z,43.95
2022-09-07T16:46:28.397Z,43.84
2022-09-07T16:48:55.262Z,44.31
2022-09-07T16:51:24.314Z,45.07
2022-09-07T16:53:53.283Z,45.60
2022-09-07T16:56:24.603Z,45.61
2022-09-07T16:58:54.925Z,45.94
2022-09-07T17:01:24.758Z,45.99
2022-09-07T17:03:51.596Z,46.89
2022-09-07T17:06:20.458Z,48.72
2022-09-07T17:08:47.649Z,49.53
2022-09-07T17:11:19.549Z,50.65
2022-09-07T17:13:46.861Z,51.55
2022-09-07T17:16:22.919Z,52.37
2022-09-07T17:21:39.741Z,51.78
2022-09-07T17:24:07.664Z,51.69
2022-09-07T17:26:34.890Z,52.17
2022-09-07T17:29:01.725Z,52.24
2022-09-07T17:34:20.598Z,54.89
2022-09-07T17:36:47.806Z,54.81
2022-09-07T17:39:17.210Z,54.77
2022-09-07T17:41:45.270Z,54.97
2022-09-07T17:44:12.057Z,54.85
2022-09-07T17:46:38.869Z,54.33
2022-09-07T17:49:08.099Z,54.51
2022-09-07T17:51:35.886Z,54.44
2022-09-07T17:54:12.943Z,54.83
2022-09-07T17:56:41.180Z,55.55
2022-09-07T18:01:55.523Z,55.48
2022-09-07T18:04:23.222Z,55.83
2022-09-07T18:06:50.363Z,56.09
2022-09-07T18:09:17.005Z,56.48
2022-09-07T18:11:48.632Z,57.01
2022-09-07T18:14:16.339Z,57.21
2022-09-07T18:16:44.417Z,58.15
2022-09-07T18:19:12.407Z,59.01
2022-09-07T18:21:43.307Z,59.82
2022-09-07T18:24:28.234Z,61.17
2022-09-07T18:26:55.325Z,61.28
2022-09-07T18:29:30.085Z,61.75
2022-09-07T18:31:59.008Z,62.48
2022-09-07T18:34:26.438Z,62.20
2022-09-07T18:36:53.032Z,62.44
2022-09-07T18:39:19.834Z,62.72
2022-09-07T18:41:46.499Z,63.16
2022-09-07T18:47:00.344Z,64.54
2022-09-07T18:49:26.896Z,64.88
2022-09-07T18:54:41.373Z,65.10
2022-09-07T18:57:08.441Z,65.28
2022-09-07T18:59:35.334Z,65.00
2022-09-07T19:02:04.901Z,65.64
2022-09-07T19:07:20.923Z,66.72
2022-09-07T19:09:48.508Z,67.49
2022-09-07T19:12:15.670Z,67.53
2022-09-07T19:14:42.549Z,68.04
2022-09-07T19:17:11.977Z,68.05
2022-09-07T19:19:39.695Z,68.43
2022-09-07T19:22:06.504Z,69.21
2022-09-07T19:24:33.506Z,69.57
2022-09-07T19:27:01.036Z,69.52
2022-09-07T19:29:29.180Z,69.25
2022-09-07T19:32:05.406Z,69.06
2022-09-07T19:34:32.941Z,69.60
2022-09-07T19:36:59.685Z,69.56
2022-09-07T19:39:26.303Z,69.56
2022-09-07T19:41:53.320Z,69.67
2022-09-07T19:44:20.348Z,69.95
2022-09-07T19:46:46.974Z,69.79
2022-09-07T19:49:13.822Z,69.61
2022-09-07T19:51:41.519Z,70.49
2022-09-07T19:54:12.041Z,70.37
2022-09-07T19:56:40.723Z,70.24
2022-09-07T19:59:07.532Z,69.25
2022-09-07T20:01:35.228Z,69.13
2022-09-07T20:04:05.116Z,69.05
2022-09-07T20:06:35.564Z,69.09
2022-09-07T20:09:02.399Z,68.79
2022-09-07T20:11:29.249Z,69.03
2022-09-07T20:13:57.439Z,69.04
2022-09-07T20:16:25.129Z,69.20
2022-09-07T20:18:52.019Z,69.46
2022-09-07T20:21:22.081Z,70.44
2022-09-07T20:23:49.084Z,70.12
2022-09-07T20:26:18.916Z,69.81
2022-09-07T20:28:45.661Z,70.53
2022-09-07T20:31:17.650Z,70.02
2022-09-07T20:33:46.309Z,72.93
2022-09-07T20:36:15.454Z,73.81
2022-09-07T20:38:53.778Z,73.82
2022-09-07T20:41:22.051Z,74.31
2022-09-07T20:43:49.620Z,74.91
2022-09-07T20:46:17.036Z,76.78
2022-09-07T20:48:43.929Z,76.61
2022-09-07T20:51:20.621Z,76.26
2022-09-07T20:53:48.711Z,75.57
2022-09-07T20:56:18.031Z,74.88
2022-09-07T20:58:46.305Z,74.47
2022-09-07T21:01:15.578Z,75.85
2022-09-07T21:03:49.180Z,75.10
2022-09-07T21:06:17.176Z,75.48
2022-09-07T21:08:45.712Z,74.88
2022-09-07T21:11:15.444Z,74.71
2022-09-07T21:13:42.750Z,74.75
2022-09-07T21:16:12.215Z,74.70
2022-09-07T21:18:39.219Z,73.81
2022-09-07T21:21:21.887Z,74.34
2022-09-07T21:23:48.544Z,74.64
2022-09-07T21:26:19.705Z,74.21
2022-09-07T21:28:46.293Z,74.45
2022-09-07T21:31:12.922Z,73.90
2022-09-07T21:33:39.547Z,74.48
2022-09-07T21:36:10.779Z,74.50
2022-09-07T21:38:39.169Z,74.37
2022-09-07T21:41:07.857Z,74.36
2022-09-07T21:43:34.765Z,74.62
2022-09-07T21:46:09.260Z,74.32
2022-09-07T21:48:36.599Z,75.27
2022-09-07T21:51:04.362Z,74.87
2022-09-07T21:53:31.927Z,75.29
2022-09-07T21:56:04.674Z,75.96
2022-09-07T21:58:32.498Z,75.70
2022-09-07T22:01:03.450Z,76.26
2022-09-07T22:03:30.119Z,75.95
2022-09-07T22:06:01.195Z,76.44
2022-09-07T22:08:27.773Z,77.95
2022-09-07T22:10:54.429Z,77.48
2022-09-07T22:13:21.210Z,77.38
2022-09-07T22:15:48.205Z,77.21
2022-09-07T22:18:15.049Z,78.63
2022-09-07T22:20:41.601Z,78.81
2022-09-07T22:23:08.293Z,79.05
2022-09-07T22:25:35.014Z,79.47
2022-09-07T22:28:01.854Z,79.92
2022-09-07T22:30:28.525Z,80.61
2022-09-07T22:32:55.083Z,80.45
2022-09-07T22:35:24.156Z,81.29
2022-09-07T22:37:50.727Z,82.14
2022-09-07T22:40:17.455Z,82.65
2022-09-07T22:42:44.055Z,82.50
2022-09-07T22:45:10.791Z,82.32
2022-09-07T22:47:37.403Z,82.07
2022-09-07T22:50:04.237Z,81.47
2022-09-07T22:52:30.909Z,81.82
2022-09-07T22:54:57.452Z,83.83
2022-09-07T22:57:24.117Z,84.42
2022-09-07T22:59:51.677Z,83.47
2022-09-07T23:02:18.323Z,83.21
2022-09-07T23:04:45.059Z,83.25
2022-09-07T23:07:11.764Z,83.43
2022-09-07T23:09:38.325Z,84.24
2022-09-07T23:12:05.069Z,85.99
2022-09-07T23:14:31.614Z,85.47
2022-09-07T23:16:58.210Z,85.26
2022-09-07T23:19:24.993Z,84.76
2022-09-07T23:21:51.701Z,85.24
2022-09-07T23:24:19.131Z,85.71
2022-09-07T23:26:46.986Z,86.87
2022-09-07T23:29:14.513Z,86.13
2022-09-07T23:31:41.620Z,86.01
2022-09-07T23:34:08.796Z,87.04
2022-09-07T23:36:36.928Z,87.57
2022-09-07T23:39:03.973Z,87.93
2022-09-07T23:41:30.608Z,88.23
2022-09-07T23:43:57.242Z,88.27
2022-09-07T23:46:24.071Z,88.76
2022-09-07T23:48:50.936Z,89.91
2022-09-07T23:51:22.809Z,89.55
2022-09-07T23:53:51.151Z,88.49
2022-09-07T23:56:17.728Z,88.90
2022-09-07T23:58:44.368Z,88.71
